Chantaco — FMLM — position and weather

sailwx.info

Track history (hours):
 
Tides and Currents Weather Stations Pressure Air Temp Water Temp Dewpoint Dewpoint Depression Visibility Wind Speed Wind Dir Waves Ship Positions

Chantaco

Last reported at 2014-Jul-28 07:13 UTC. Time now 2014-Jul-28 18:37 UTC.
Position N 50°29' W 000°15'.

Length 143 m; draft 6.6 m.

Type: Tanker. MMSI: 228330700.

Date/timePositionNaut miles runAvg speedWind from/ knotsBaromVisibWave heightAir tempDewpointWater temp
2014-Jul-28 07:13N 50°29' W 000°15'1214.6
2014-Jul-28 06:25N 50°32' E 000°03'1315.4
2014-Jul-28 05:33N 50°36' E 000°23'1615.7
2014-Jul-28 04:33N 50°43' E 000°45'1514.9
2014-Jul-28 03:32N 50°52' E 001°04'1313.8
2014-Jul-28 02:33N 51°01' E 001°21'1212.1
2014-Jul-28 01:33N 51°09' E 001°35'1211.7
2014-Jul-28 00:33N 51°17' E 001°49'1212.4
2014-Jul-27 23:34N 51°25' E 002°04'1313.3
2014-Jul-27 22:33N 51°22' E 002°25'1414.5
2014-Jul-27 21:34N 51°22' E 002°48'1515.2
2014-Jul-27 20:33N 51°24' E 003°12'1615.8
2014-Jul-27 19:33N 51°26' E 003°37'4 4.0
2014-Jul-27 18:31N 51°25' E 003°44'0 0.0
2014-Jul-27 17:27N 51°25' E 003°44'0 0.0
2014-Jul-27 16:27N 51°25' E 003°44'0 0.0
2014-Jul-27 15:30N 51°25' E 003°44'0 0.0
2014-Jul-27 14:33N 51°25' E 003°44'0 0.0
2014-Jul-27 13:30N 51°25' E 003°44'0 0.0
2014-Jul-27 12:33N 51°25' E 003°44'0 0.0
2014-Jul-27 11:33N 51°25' E 003°44'0 0.0
2014-Jul-27 10:30N 51°25' E 003°44'0 0.0
2014-Jul-27 09:30N 51°25' E 003°44'0 0.0
2014-Jul-27 08:30N 51°25' E 003°44'0 0.0
2014-Jul-27 07:30N 51°25' E 003°44'0 0.0
2014-Jul-27 06:30N 51°25' E 003°44'0 0.0
2014-Jul-27 05:33N 51°25' E 003°44'0 0.0
2014-Jul-27 04:30N 51°25' E 003°44'0 0.0
2014-Jul-27 03:30N 51°25' E 003°44'0 0.0
2014-Jul-27 02:21N 51°25' E 003°44'0 0.0
2014-Jul-27 01:33N 51°25' E 003°44'0 0.0
2014-Jul-27 00:33N 51°25' E 003°44'0 0.0
2014-Jul-26 23:30N 51°25' E 003°44'0 0.0
2014-Jul-26 22:33N 51°25' E 003°44'0 0.0
2014-Jul-26 21:24N 51°25' E 003°44'0 0.0
2014-Jul-26 20:30N 51°25' E 003°44'0 0.0
2014-Jul-26 19:33N 51°25' E 003°44'0 0.0
2014-Jul-26 18:33N 51°25' E 003°44'0 0.0
2014-Jul-26 17:33N 51°25' E 003°44'0 0.0
2014-Jul-26 16:30N 51°25' E 003°44'0 0.0
2014-Jul-26 15:30N 51°25' E 003°44'0 0.0
2014-Jul-26 14:30N 51°25' E 003°44'0 0.0
2014-Jul-26 13:33N 51°25' E 003°44'0 0.0
2014-Jul-26 12:33N 51°25' E 003°44'0 0.0
2014-Jul-26 11:30N 51°25' E 003°44'0 0.0
2014-Jul-26 10:30N 51°25' E 003°44'0 0.0
2014-Jul-26 09:27N 51°25' E 003°44'0 0.0
2014-Jul-26 08:33N 51°25' E 003°44'0 0.0
2014-Jul-26 07:29N 51°25' E 003°44'0 0.0
2014-Jul-26 06:32N 51°25' E 003°44'0 0.0
2014-Jul-26 05:29N 51°25' E 003°44'0 0.0
2014-Jul-26 04:33N 51°25' E 003°44'3 3.5
2014-Jul-26 03:34N 51°26' E 003°39'9 9.2
2014-Jul-26 02:33N 51°24' E 003°24'1010.3
2014-Jul-26 01:33N 51°24' E 003°08'1010.4
2014-Jul-26 00:33N 51°22' E 002°51'8 7.5
2014-Jul-25 23:32N 51°25' E 002°40'0 0.2
2014-Jul-25 22:31N 51°25' E 002°40'0 0.1
2014-Jul-25 21:28N 51°25' E 002°40'0 0.0
2014-Jul-25 20:31N 51°25' E 002°40'0 0.0
2014-Jul-25 19:31N 51°25' E 002°40'0 0.0
2014-Jul-25 18:19N 51°25' E 002°40'0 0.0
2014-Jul-25 17:31N 51°25' E 002°40'0 0.0
2014-Jul-25 16:27N 51°25' E 002°40'0 0.2
2014-Jul-25 15:33N 51°25' E 002°40'0 0.0
2014-Jul-25 13:07N 51°25' E 002°40'0 0.0
2014-Jul-25 12:27N 51°25' E 002°40'0 0.0
2014-Jul-25 11:15N 51°25' E 002°40'0 0.2
2014-Jul-25 10:30N 51°25' E 002°40'0 0.0
2014-Jul-25 09:27N 51°25' E 002°40'0 0.0
2014-Jul-25 08:30N 51°25' E 002°40'0 0.0
2014-Jul-25 07:27N 51°25' E 002°40'0 0.0
2014-Jul-25 06:33N 51°25' E 002°40'0 0.1
2014-Jul-25 05:28N 51°25' E 002°40'1010.8
2014-Jul-25 04:34N 51°23' E 002°55'1413.9
2014-Jul-25 03:33N 51°24' E 003°18'1313.5
2014-Jul-25 02:33N 51°26' E 003°39'10 9.6
2014-Jul-25 01:33N 51°21' E 003°51'8 7.7
2014-Jul-25 00:33N 51°26' E 004°01'6 6.5
2014-Jul-24 23:33N 51°23' E 004°10'7 7.3
2014-Jul-24 22:34N 51°18' E 004°18'2 1.8
2014-Jul-24 21:34N 51°17' E 004°20'0 0.4
2014-Jul-24 20:33N 51°16' E 004°21'1 0.5
2014-Jul-24 19:33N 51°16' E 004°21'0 0.0
2014-Jul-24 18:33N 51°16' E 004°21'0 0.0
2014-Jul-24 17:33N 51°16' E 004°21'0 0.0
2014-Jul-24 16:33N 51°16' E 004°21'0 0.0
2014-Jul-24 15:33N 51°16' E 004°21'0 0.0
2014-Jul-24 14:33N 51°16' E 004°21'0 0.0
2014-Jul-24 13:33N 51°16' E 004°21'0 0.0
2014-Jul-24 12:33N 51°16' E 004°21'0 0.0
2014-Jul-24 11:33N 51°16' E 004°21'0 0.0
2014-Jul-24 10:33N 51°16' E 004°21'0 0.0
2014-Jul-24 09:33N 51°16' E 004°21'0 0.0
2014-Jul-24 07:33N 51°16' E 004°21'0 0.0
2014-Jul-24 06:33N 51°16' E 004°21'0 0.0
2014-Jul-24 05:33N 51°16' E 004°21'0 0.0
2014-Jul-24 04:33N 51°16' E 004°21'0 0.0
2014-Jul-24 03:33N 51°16' E 004°21'0 0.0
2014-Jul-24 02:33N 51°16' E 004°21'0 0.0
2014-Jul-24 01:30N 51°16' E 004°21'0 0.0
2014-Jul-24 00:33N 51°16' E 004°21'0 0.0
2014-Jul-23 23:30N 51°16' E 004°21'0 0.0
2014-Jul-23 22:30N 51°16' E 004°21'0 0.0
2014-Jul-23 21:32N 51°16' E 004°21'0 0.0
2014-Jul-23 20:32N 51°16' E 004°21'0 0.0
2014-Jul-23 19:32N 51°16' E 004°21'0 0.0
2014-Jul-23 18:32N 51°16' E 004°21'0 0.0
2014-Jul-23 17:32N 51°16' E 004°21'0 0.0
2014-Jul-23 16:32N 51°16' E 004°21'0 0.0
2014-Jul-23 15:32N 51°16' E 004°21'0 0.0
2014-Jul-23 14:32N 51°16' E 004°21'1 0.9
2014-Jul-23 13:33N 51°15' E 004°21'1 1.3
2014-Jul-23 12:33N 51°16' E 004°23'0 0.0
2014-Jul-23 11:33N 51°16' E 004°23'0 0.0
2014-Jul-23 10:33N 51°16' E 004°23'0 0.0
2014-Jul-23 09:33N 51°16' E 004°23'0 0.0
2014-Jul-23 08:33N 51°16' E 004°23'0 0.0
2014-Jul-23 07:33N 51°16' E 004°23'0 0.0
2014-Jul-23 06:33N 51°16' E 004°23'0 0.0
2014-Jul-23 05:33N 51°16' E 004°23'0 0.0
2014-Jul-23 04:33N 51°16' E 004°23'0 0.0
2014-Jul-23 03:33N 51°16' E 004°23'0 0.0
2014-Jul-23 02:33N 51°16' E 004°23'0 0.0
2014-Jul-23 01:33N 51°16' E 004°23'0 0.0
2014-Jul-23 00:33N 51°16' E 004°23'0 0.0
2014-Jul-22 23:33N 51°16' E 004°23'0 0.0
2014-Jul-22 22:33N 51°16' E 004°23'0 0.0
2014-Jul-22 21:33N 51°16' E 004°23'0 0.0
2014-Jul-22 20:33N 51°16' E 004°23'0 0.0
2014-Jul-22 19:30N 51°16' E 004°23'0 0.0
2014-Jul-22 18:33N 51°16' E 004°23'0 0.0
2014-Jul-22 17:33N 51°16' E 004°23'0 0.0
2014-Jul-22 16:33N 51°16' E 004°23'0 0.0
2014-Jul-22 15:33N 51°16' E 004°23'0 0.0
2014-Jul-22 14:33N 51°16' E 004°23'0 0.0
2014-Jul-22 13:33N 51°16' E 004°23'0 0.0
2014-Jul-22 12:33N 51°16' E 004°23'0 0.0
2014-Jul-22 11:33N 51°16' E 004°23'0 0.0
2014-Jul-22 10:33N 51°16' E 004°23'0 0.0
2014-Jul-22 09:33N 51°16' E 004°23'0 0.0
2014-Jul-22 08:33N 51°16' E 004°23'0 0.0
2014-Jul-22 07:33N 51°16' E 004°23'1 1.0
2014-Jul-22 06:33N 51°16' E 004°22'1 0.7
2014-Jul-22 05:32N 51°16' E 004°21'0 0.0
2014-Jul-22 04:32N 51°16' E 004°21'0 0.0
2014-Jul-22 03:32N 51°16' E 004°21'0 0.0
2014-Jul-22 02:32N 51°16' E 004°21'0 0.0
2014-Jul-22 01:32N 51°16' E 004°21'0 0.0
2014-Jul-22 00:32N 51°16' E 004°21'0 0.0
2014-Jul-21 23:32N 51°16' E 004°21'0 0.0
2014-Jul-21 22:32N 51°16' E 004°21'0 0.0
2014-Jul-21 21:32N 51°16' E 004°21'0 0.0
2014-Jul-21 20:32N 51°16' E 004°21'0 0.0
2014-Jul-21 20:14N 51°16' E 004°21'0 0.0
2014-Jul-21 19:32N 51°16' E 004°21'0 0.0
2014-Jul-21 18:29N 51°16' E 004°21'0 0.0
2014-Jul-21 17:32N 51°16' E 004°21'0 0.0
2014-Jul-21 16:32N 51°16' E 004°21'0 0.0
2014-Jul-21 15:32N 51°16' E 004°21'0 0.0
2014-Jul-21 14:32N 51°16' E 004°21'0 0.0
2014-Jul-21 13:32N 51°16' E 004°21'0 0.0
2014-Jul-21 12:32N 51°16' E 004°21'0 0.0
2014-Jul-21 11:32N 51°16' E 004°21'0 0.0
2014-Jul-21 10:32N 51°16' E 004°21'0 0.0
2014-Jul-21 09:29N 51°16' E 004°21'0 0.0
2014-Jul-21 08:32N 51°16' E 004°21'0 0.0
2014-Jul-21 07:32N 51°16' E 004°21'0 0.0
2014-Jul-21 06:32N 51°16' E 004°21'0 0.0
2014-Jul-21 05:31N 51°16' E 004°21'0 0.0
2014-Jul-21 04:31N 51°16' E 004°21'0 0.0
2014-Jul-21 03:31N 51°16' E 004°21'0 0.0
2014-Jul-21 02:31N 51°16' E 004°21'0 0.0
2014-Jul-21 01:31N 51°16' E 004°21'0 0.0
2014-Jul-21 00:31N 51°16' E 004°21'0 0.0
2014-Jul-20 23:31N 51°16' E 004°21'0 0.0
2014-Jul-20 22:31N 51°16' E 004°21'0 0.0
2014-Jul-20 21:31N 51°16' E 004°21'0 0.0
2014-Jul-20 20:28N 51°16' E 004°21'0 0.0
2014-Jul-20 19:31N 51°16' E 004°21'0 0.0
2014-Jul-20 18:31N 51°16' E 004°21'0 0.0
2014-Jul-20 17:31N 51°16' E 004°21'0 0.0
2014-Jul-20 16:31N 51°16' E 004°21'0 0.0
2014-Jul-20 15:31N 51°16' E 004°21'0 0.0
2014-Jul-20 14:31N 51°16' E 004°21'0 0.0
2014-Jul-20 13:31N 51°16' E 004°21'0 0.0
2014-Jul-20 12:31N 51°16' E 004°21'0 0.0
2014-Jul-20 11:31N 51°16' E 004°21'0 0.0
2014-Jul-20 10:31N 51°16' E 004°21'0 0.0
2014-Jul-20 09:31N 51°16' E 004°21'0 0.0
2014-Jul-20 08:28N 51°16' E 004°21'0 0.0
2014-Jul-20 07:31N 51°16' E 004°21'0 0.0
2014-Jul-20 06:31N 51°16' E 004°21'0 0.0
2014-Jul-20 05:31N 51°16' E 004°21'0 0.0
2014-Jul-20 04:31N 51°16' E 004°21'0 0.0
2014-Jul-20 03:31N 51°16' E 004°21'0 0.0
2014-Jul-20 02:28N 51°16' E 004°21'0 0.0
2014-Jul-20 01:28N 51°16' E 004°21'0 0.0
2014-Jul-20 00:31N 51°16' E 004°21'0 0.0
2014-Jul-19 23:31N 51°16' E 004°21'0 0.0
2014-Jul-19 22:28N 51°16' E 004°21'0 0.0
2014-Jul-19 21:31N 51°16' E 004°21'0 0.0
2014-Jul-19 20:28N 51°16' E 004°21'0 0.0
2014-Jul-19 19:28N 51°16' E 004°21'0 0.0
2014-Jul-19 18:31N 51°16' E 004°21'0 0.0
2014-Jul-19 17:31N 51°16' E 004°21'4 4.0
2014-Jul-19 16:33N 51°20' E 004°18'1 1.2
2014-Jul-19 15:33N 51°21' E 004°17'0 0.2
2014-Jul-19 14:33N 51°21' E 004°17'5 4.7
2014-Jul-19 13:33N 51°24' E 004°11'7 7.5
2014-Jul-19 12:33N 51°26' E 004°00'9 9.4
2014-Jul-19 11:33N 51°21' E 003°47'9 9.0
2014-Jul-19 10:33N 51°26' E 003°35'1010.4
2014-Jul-19 09:33N 51°24' E 003°18'1212.1
2014-Jul-19 08:33N 51°23' E 002°59'1312.9
2014-Jul-19 07:33N 51°22' E 002°39'1414.1
2014-Jul-19 06:33N 51°18' E 002°17'1515.6
2014-Jul-19 05:33N 51°10' E 001°56'1716.6
2014-Jul-19 04:33N 50°59' E 001°36'1916.5
2014-Jul-19 03:26N 50°43' E 001°22'2815.1
2014-Jul-19 01:33N 50°27' E 000°44'1615.6
2014-Jul-19 00:34N 50°23' E 000°21'1515.3
2014-Jul-18 23:33N 50°19' W 000°02'6712.6
2014-Jul-18 18:14N 50°01' W 001°43'  
Track history (hours):
 
Tides and Currents Weather Stations Pressure Air Temp Water Temp Dewpoint Dewpoint Depression Visibility Wind Speed Wind Dir Waves Ship Positions

Chantaco

Last reported at 2014-Jul-28 07:13 UTC. Time now 2014-Jul-28 18:37 UTC.
Position N 50°29' W 000°15'.

Length 143 m; draft 6.6 m.

Type: Tanker. MMSI: 228330700.

Date/timePositionNaut miles runAvg speedWind from/ knotsBaromVisibWave heightAir tempDewpointWater temp
2014-Jul-28 07:13N 50°29' W 000°15'1214.6
2014-Jul-28 06:25N 50°32' E 000°03'1315.4
2014-Jul-28 05:33N 50°36' E 000°23'1615.7
2014-Jul-28 04:33N 50°43' E 000°45'1514.9
2014-Jul-28 03:32N 50°52' E 001°04'1313.8
2014-Jul-28 02:33N 51°01' E 001°21'1212.1
2014-Jul-28 01:33N 51°09' E 001°35'1211.7
2014-Jul-28 00:33N 51°17' E 001°49'1212.4
2014-Jul-27 23:34N 51°25' E 002°04'1313.3
2014-Jul-27 22:33N 51°22' E 002°25'1414.5
2014-Jul-27 21:34N 51°22' E 002°48'1515.2
2014-Jul-27 20:33N 51°24' E 003°12'1615.8
2014-Jul-27 19:33N 51°26' E 003°37'4 4.0
2014-Jul-27 18:31N 51°25' E 003°44'0 0.0
2014-Jul-27 17:27N 51°25' E 003°44'0 0.0
2014-Jul-27 16:27N 51°25' E 003°44'0 0.0
2014-Jul-27 15:30N 51°25' E 003°44'0 0.0
2014-Jul-27 14:33N 51°25' E 003°44'0 0.0
2014-Jul-27 13:30N 51°25' E 003°44'0 0.0
2014-Jul-27 12:33N 51°25' E 003°44'0 0.0
2014-Jul-27 11:33N 51°25' E 003°44'0 0.0
2014-Jul-27 10:30N 51°25' E 003°44'0 0.0
2014-Jul-27 09:30N 51°25' E 003°44'0 0.0
2014-Jul-27 08:30N 51°25' E 003°44'0 0.0
2014-Jul-27 07:30N 51°25' E 003°44'0 0.0
2014-Jul-27 06:30N 51°25' E 003°44'0 0.0
2014-Jul-27 05:33N 51°25' E 003°44'0 0.0
2014-Jul-27 04:30N 51°25' E 003°44'0 0.0
2014-Jul-27 03:30N 51°25' E 003°44'0 0.0
2014-Jul-27 02:21N 51°25' E 003°44'0 0.0
2014-Jul-27 01:33N 51°25' E 003°44'0 0.0
2014-Jul-27 00:33N 51°25' E 003°44'0 0.0
2014-Jul-26 23:30N 51°25' E 003°44'0 0.0
2014-Jul-26 22:33N 51°25' E 003°44'0 0.0
2014-Jul-26 21:24N 51°25' E 003°44'0 0.0
2014-Jul-26 20:30N 51°25' E 003°44'0 0.0
2014-Jul-26 19:33N 51°25' E 003°44'0 0.0
2014-Jul-26 18:33N 51°25' E 003°44'0 0.0
2014-Jul-26 17:33N 51°25' E 003°44'0 0.0
2014-Jul-26 16:30N 51°25' E 003°44'0 0.0
2014-Jul-26 15:30N 51°25' E 003°44'0 0.0
2014-Jul-26 14:30N 51°25' E 003°44'0 0.0
2014-Jul-26 13:33N 51°25' E 003°44'0 0.0
2014-Jul-26 12:33N 51°25' E 003°44'0 0.0
2014-Jul-26 11:30N 51°25' E 003°44'0 0.0
2014-Jul-26 10:30N 51°25' E 003°44'0 0.0
2014-Jul-26 09:27N 51°25' E 003°44'0 0.0
2014-Jul-26 08:33N 51°25' E 003°44'0 0.0
2014-Jul-26 07:29N 51°25' E 003°44'0 0.0
2014-Jul-26 06:32N 51°25' E 003°44'0 0.0
2014-Jul-26 05:29N 51°25' E 003°44'0 0.0
2014-Jul-26 04:33N 51°25' E 003°44'3 3.5
2014-Jul-26 03:34N 51°26' E 003°39'9 9.2
2014-Jul-26 02:33N 51°24' E 003°24'1010.3
2014-Jul-26 01:33N 51°24' E 003°08'1010.4
2014-Jul-26 00:33N 51°22' E 002°51'8 7.5
2014-Jul-25 23:32N 51°25' E 002°40'0 0.2
2014-Jul-25 22:31N 51°25' E 002°40'0 0.1
2014-Jul-25 21:28N 51°25' E 002°40'0 0.0
2014-Jul-25 20:31N 51°25' E 002°40'0 0.0
2014-Jul-25 19:31N 51°25' E 002°40'0 0.0
2014-Jul-25 18:19N 51°25' E 002°40'0 0.0
2014-Jul-25 17:31N 51°25' E 002°40'0 0.0
2014-Jul-25 16:27N 51°25' E 002°40'0 0.2
2014-Jul-25 15:33N 51°25' E 002°40'0 0.0
2014-Jul-25 13:07N 51°25' E 002°40'0 0.0
2014-Jul-25 12:27N 51°25' E 002°40'0 0.0
2014-Jul-25 11:15N 51°25' E 002°40'0 0.2
2014-Jul-25 10:30N 51°25' E 002°40'0 0.0
2014-Jul-25 09:27N 51°25' E 002°40'0 0.0
2014-Jul-25 08:30N 51°25' E 002°40'0 0.0
2014-Jul-25 07:27N 51°25' E 002°40'0 0.0
2014-Jul-25 06:33N 51°25' E 002°40'0 0.1
2014-Jul-25 05:28N 51°25' E 002°40'1010.8
2014-Jul-25 04:34N 51°23' E 002°55'1413.9
2014-Jul-25 03:33N 51°24' E 003°18'1313.5
2014-Jul-25 02:33N 51°26' E 003°39'10 9.6
2014-Jul-25 01:33N 51°21' E 003°51'8 7.7
2014-Jul-25 00:33N 51°26' E 004°01'6 6.5
2014-Jul-24 23:33N 51°23' E 004°10'7 7.3
2014-Jul-24 22:34N 51°18' E 004°18'2 1.8
2014-Jul-24 21:34N 51°17' E 004°20'0 0.4
2014-Jul-24 20:33N 51°16' E 004°21'1 0.5
2014-Jul-24 19:33N 51°16' E 004°21'0 0.0
2014-Jul-24 18:33N 51°16' E 004°21'0 0.0
2014-Jul-24 17:33N 51°16' E 004°21'0 0.0
2014-Jul-24 16:33N 51°16' E 004°21'0 0.0
2014-Jul-24 15:33N 51°16' E 004°21'0 0.0
2014-Jul-24 14:33N 51°16' E 004°21'0 0.0
2014-Jul-24 13:33N 51°16' E 004°21'0 0.0
2014-Jul-24 12:33N 51°16' E 004°21'0 0.0
2014-Jul-24 11:33N 51°16' E 004°21'0 0.0
2014-Jul-24 10:33N 51°16' E 004°21'0 0.0
2014-Jul-24 09:33N 51°16' E 004°21'0 0.0
2014-Jul-24 07:33N 51°16' E 004°21'0 0.0
2014-Jul-24 06:33N 51°16' E 004°21'0 0.0
2014-Jul-24 05:33N 51°16' E 004°21'0 0.0
2014-Jul-24 04:33N 51°16' E 004°21'0 0.0
2014-Jul-24 03:33N 51°16' E 004°21'0 0.0
2014-Jul-24 02:33N 51°16' E 004°21'0 0.0
2014-Jul-24 01:30N 51°16' E 004°21'0 0.0
2014-Jul-24 00:33N 51°16' E 004°21'0 0.0
2014-Jul-23 23:30N 51°16' E 004°21'0 0.0
2014-Jul-23 22:30N 51°16' E 004°21'0 0.0
2014-Jul-23 21:32N 51°16' E 004°21'0 0.0
2014-Jul-23 20:32N 51°16' E 004°21'0 0.0
2014-Jul-23 19:32N 51°16' E 004°21'0 0.0
2014-Jul-23 18:32N 51°16' E 004°21'0 0.0
2014-Jul-23 17:32N 51°16' E 004°21'0 0.0
2014-Jul-23 16:32N 51°16' E 004°21'0 0.0
2014-Jul-23 15:32N 51°16' E 004°21'0 0.0
2014-Jul-23 14:32N 51°16' E 004°21'1 0.9
2014-Jul-23 13:33N 51°15' E 004°21'1 1.3
2014-Jul-23 12:33N 51°16' E 004°23'0 0.0
2014-Jul-23 11:33N 51°16' E 004°23'0 0.0
2014-Jul-23 10:33N 51°16' E 004°23'0 0.0
2014-Jul-23 09:33N 51°16' E 004°23'0 0.0
2014-Jul-23 08:33N 51°16' E 004°23'0 0.0
2014-Jul-23 07:33N 51°16' E 004°23'0 0.0
2014-Jul-23 06:33N 51°16' E 004°23'0 0.0
2014-Jul-23 05:33N 51°16' E 004°23'0 0.0
2014-Jul-23 04:33N 51°16' E 004°23'0 0.0
2014-Jul-23 03:33N 51°16' E 004°23'0 0.0
2014-Jul-23 02:33N 51°16' E 004°23'0 0.0
2014-Jul-23 01:33N 51°16' E 004°23'0 0.0
2014-Jul-23 00:33N 51°16' E 004°23'0 0.0
2014-Jul-22 23:33N 51°16' E 004°23'0 0.0
2014-Jul-22 22:33N 51°16' E 004°23'0 0.0
2014-Jul-22 21:33N 51°16' E 004°23'0 0.0
2014-Jul-22 20:33N 51°16' E 004°23'0 0.0
2014-Jul-22 19:30N 51°16' E 004°23'0 0.0
2014-Jul-22 18:33N 51°16' E 004°23'0 0.0
2014-Jul-22 17:33N 51°16' E 004°23'0 0.0
2014-Jul-22 16:33N 51°16' E 004°23'0 0.0
2014-Jul-22 15:33N 51°16' E 004°23'0 0.0
2014-Jul-22 14:33N 51°16' E 004°23'0 0.0
2014-Jul-22 13:33N 51°16' E 004°23'0 0.0
2014-Jul-22 12:33N 51°16' E 004°23'0 0.0
2014-Jul-22 11:33N 51°16' E 004°23'0 0.0
2014-Jul-22 10:33N 51°16' E 004°23'0 0.0
2014-Jul-22 09:33N 51°16' E 004°23'0 0.0
2014-Jul-22 08:33N 51°16' E 004°23'0 0.0
2014-Jul-22 07:33N 51°16' E 004°23'1 1.0
2014-Jul-22 06:33N 51°16' E 004°22'1 0.7
2014-Jul-22 05:32N 51°16' E 004°21'0 0.0
2014-Jul-22 04:32N 51°16' E 004°21'0 0.0
2014-Jul-22 03:32N 51°16' E 004°21'0 0.0
2014-Jul-22 02:32N 51°16' E 004°21'0 0.0
2014-Jul-22 01:32N 51°16' E 004°21'0 0.0
2014-Jul-22 00:32N 51°16' E 004°21'0 0.0
2014-Jul-21 23:32N 51°16' E 004°21'0 0.0
2014-Jul-21 22:32N 51°16' E 004°21'0 0.0
2014-Jul-21 21:32N 51°16' E 004°21'0 0.0
2014-Jul-21 20:32N 51°16' E 004°21'0 0.0
2014-Jul-21 20:14N 51°16' E 004°21'0 0.0
2014-Jul-21 19:32N 51°16' E 004°21'0 0.0
2014-Jul-21 18:29N 51°16' E 004°21'0 0.0
2014-Jul-21 17:32N 51°16' E 004°21'0 0.0
2014-Jul-21 16:32N 51°16' E 004°21'0 0.0
2014-Jul-21 15:32N 51°16' E 004°21'0 0.0
2014-Jul-21 14:32N 51°16' E 004°21'0 0.0
2014-Jul-21 13:32N 51°16' E 004°21'0 0.0
2014-Jul-21 12:32N 51°16' E 004°21'0 0.0
2014-Jul-21 11:32N 51°16' E 004°21'0 0.0
2014-Jul-21 10:32N 51°16' E 004°21'0 0.0
2014-Jul-21 09:29N 51°16' E 004°21'0 0.0
2014-Jul-21 08:32N 51°16' E 004°21'0 0.0
2014-Jul-21 07:32N 51°16' E 004°21'0 0.0
2014-Jul-21 06:32N 51°16' E 004°21'0 0.0
2014-Jul-21 05:31N 51°16' E 004°21'0 0.0
2014-Jul-21 04:31N 51°16' E 004°21'0 0.0
2014-Jul-21 03:31N 51°16' E 004°21'0 0.0
2014-Jul-21 02:31N 51°16' E 004°21'0 0.0
2014-Jul-21 01:31N 51°16' E 004°21'0 0.0
2014-Jul-21 00:31N 51°16' E 004°21'0 0.0
2014-Jul-20 23:31N 51°16' E 004°21'0 0.0
2014-Jul-20 22:31N 51°16' E 004°21'0 0.0
2014-Jul-20 21:31N 51°16' E 004°21'0 0.0
2014-Jul-20 20:28N 51°16' E 004°21'0 0.0
2014-Jul-20 19:31N 51°16' E 004°21'0 0.0
2014-Jul-20 18:31N 51°16' E 004°21'0 0.0
2014-Jul-20 17:31N 51°16' E 004°21'0 0.0
2014-Jul-20 16:31N 51°16' E 004°21'0 0.0
2014-Jul-20 15:31N 51°16' E 004°21'0 0.0
2014-Jul-20 14:31N 51°16' E 004°21'0 0.0
2014-Jul-20 13:31N 51°16' E 004°21'0 0.0
2014-Jul-20 12:31N 51°16' E 004°21'0 0.0
2014-Jul-20 11:31N 51°16' E 004°21'0 0.0
2014-Jul-20 10:31N 51°16' E 004°21'0 0.0
2014-Jul-20 09:31N 51°16' E 004°21'0 0.0
2014-Jul-20 08:28N 51°16' E 004°21'0 0.0
2014-Jul-20 07:31N 51°16' E 004°21'0 0.0
2014-Jul-20 06:31N 51°16' E 004°21'0 0.0
2014-Jul-20 05:31N 51°16' E 004°21'0 0.0
2014-Jul-20 04:31N 51°16' E 004°21'0 0.0
2014-Jul-20 03:31N 51°16' E 004°21'0 0.0
2014-Jul-20 02:28N 51°16' E 004°21'0 0.0
2014-Jul-20 01:28N 51°16' E 004°21'0 0.0
2014-Jul-20 00:31N 51°16' E 004°21'0 0.0
2014-Jul-19 23:31N 51°16' E 004°21'0 0.0
2014-Jul-19 22:28N 51°16' E 004°21'0 0.0
2014-Jul-19 21:31N 51°16' E 004°21'0 0.0
2014-Jul-19 20:28N 51°16' E 004°21'0 0.0
2014-Jul-19 19:28N 51°16' E 004°21'0 0.0
2014-Jul-19 18:31N 51°16' E 004°21'0 0.0
2014-Jul-19 17:31N 51°16' E 004°21'4 4.0
2014-Jul-19 16:33N 51°20' E 004°18'1 1.2
2014-Jul-19 15:33N 51°21' E 004°17'0 0.2
2014-Jul-19 14:33N 51°21' E 004°17'5 4.7
2014-Jul-19 13:33N 51°24' E 004°11'7 7.5
2014-Jul-19 12:33N 51°26' E 004°00'9 9.4
2014-Jul-19 11:33N 51°21' E 003°47'9 9.0
2014-Jul-19 10:33N 51°26' E 003°35'1010.4
2014-Jul-19 09:33N 51°24' E 003°18'1212.1
2014-Jul-19 08:33N 51°23' E 002°59'1312.9
2014-Jul-19 07:33N 51°22' E 002°39'1414.1
2014-Jul-19 06:33N 51°18' E 002°17'1515.6
2014-Jul-19 05:33N 51°10' E 001°56'1716.6
2014-Jul-19 04:33N 50°59' E 001°36'1916.5
2014-Jul-19 03:26N 50°43' E 001°22'2815.1
2014-Jul-19 01:33N 50°27' E 000°44'1615.6
2014-Jul-19 00:34N 50°23' E 000°21'1515.3
2014-Jul-18 23:33N 50°19' W 000°02'6712.6
2014-Jul-18 18:14N 50°01' W 001°43'  

Dump ship's entire track history